createdAt,value
2019-02-21T00:02:17.897Z,81.40
2019-02-21T00:04:45.799Z,81.90
2019-02-21T00:07:14.384Z,81.60
2019-02-21T00:09:43.068Z,81.30
2019-02-21T00:12:11.709Z,81.30
2019-02-21T00:14:40.272Z,81.90
2019-02-21T00:17:08.857Z,81.80
2019-02-21T00:19:37.498Z,81.40
2019-02-21T00:22:06.154Z,81.50
2019-02-21T00:24:34.834Z,81.90
2019-02-21T00:27:03.424Z,82.10
2019-02-21T00:29:32.052Z,81.70
2019-02-21T00:32:00.702Z,81.20
2019-02-21T00:34:29.339Z,81.00
2019-02-21T00:36:57.923Z,81.10
2019-02-21T00:39:26.608Z,81.80
2019-02-21T00:41:55.243Z,82.20
2019-02-21T00:44:23.832Z,82.80
2019-02-21T00:46:52.530Z,83.20
2019-02-21T00:49:21.176Z,82.80
2019-02-21T00:51:49.763Z,82.50
2019-02-21T00:54:18.475Z,82.00
2019-02-21T00:56:47.059Z,81.90
2019-02-21T00:59:15.778Z,81.90
2019-02-21T01:01:44.479Z,81.80
2019-02-21T01:04:13.127Z,81.60
2019-02-21T01:06:41.773Z,81.20
2019-02-21T01:09:10.464Z,81.10
2019-02-21T01:11:39.118Z,81.30
2019-02-21T01:14:07.771Z,81.50
2019-02-21T01:16:36.484Z,81.60
2019-02-21T01:19:05.133Z,82.00
2019-02-21T01:21:33.779Z,82.70
2019-02-21T01:24:04.940Z,83.40
2019-02-21T01:26:32.805Z,83.70
2019-02-21T01:29:01.464Z,83.60
2019-02-21T01:31:30.167Z,83.50
2019-02-21T01:33:58.824Z,83.40
2019-02-21T01:36:27.479Z,83.30
2019-02-21T01:38:56.160Z,83.90
2019-02-21T01:41:24.813Z,82.90
2019-02-21T01:43:53.461Z,82.80
2019-02-21T01:46:22.162Z,82.30
2019-02-21T01:48:50.828Z,82.10
2019-02-21T01:51:19.480Z,82.50
2019-02-21T01:53:48.175Z,82.70
2019-02-21T01:56:16.827Z,82.90
2019-02-21T01:58:45.474Z,83.50
2019-02-21T02:01:14.167Z,84.10
2019-02-21T02:03:42.821Z,84.70
2019-02-21T02:06:11.468Z,84.80
2019-02-21T02:08:40.183Z,84.80
2019-02-21T02:11:08.835Z,84.50
2019-02-21T02:13:37.488Z,84.50
2019-02-21T02:16:06.190Z,85.00
2019-02-21T02:18:34.843Z,85.40
2019-02-21T02:21:03.477Z,85.30
2019-02-21T02:23:32.186Z,85.00
2019-02-21T02:26:00.829Z,84.00
2019-02-21T02:28:29.415Z,83.60
2019-02-21T02:30:58.119Z,83.60
2019-02-21T02:33:26.759Z,83.80
2019-02-21T02:35:55.410Z,83.60
2019-02-21T02:38:24.111Z,83.90
2019-02-21T02:40:52.763Z,84.30
2019-02-21T02:43:21.504Z,84.50
2019-02-21T02:45:50.219Z,84.50
2019-02-21T02:48:18.879Z,84.60
2019-02-21T02:50:47.526Z,84.90
2019-02-21T02:53:16.155Z,84.90
2019-02-21T02:55:44.800Z,84.90
2019-02-21T02:58:13.446Z,84.70
2019-02-21T03:00:42.159Z,83.90
2019-02-21T03:03:10.798Z,83.30
2019-02-21T03:05:39.488Z,83.10
2019-02-21T03:08:08.158Z,82.90
2019-02-21T03:10:36.805Z,83.00
2019-02-21T03:13:05.441Z,83.40
2019-02-21T03:15:34.135Z,83.90
2019-02-21T03:18:02.730Z,84.00
2019-02-21T03:20:31.387Z,84.00
2019-02-21T03:23:00.112Z,84.10
2019-02-21T03:25:28.780Z,84.10
2019-02-21T03:27:57.441Z,83.90
2019-02-21T03:30:26.174Z,83.90
2019-02-21T03:32:54.888Z,84.00
2019-02-21T03:35:23.548Z,84.40
2019-02-21T03:37:52.229Z,84.80
2019-02-21T03:40:20.888Z,84.30
2019-02-21T03:42:49.534Z,84.10
2019-02-21T03:45:18.246Z,84.30
2019-02-21T03:47:46.881Z,84.50
2019-02-21T03:50:15.460Z,84.80
2019-02-21T03:52:44.151Z,85.00
2019-02-21T03:55:12.822Z,85.00
2019-02-21T03:57:41.459Z,84.50
2019-02-21T04:00:11.915Z,85.30
2019-02-21T04:02:40.614Z,84.50
2019-02-21T04:05:09.276Z,84.50
2019-02-21T04:07:37.970Z,84.30
2019-02-21T04:10:08.718Z,84.60
2019-02-21T04:12:37.379Z,85.40
2019-02-21T04:15:08.682Z,85.70
2019-02-21T04:17:37.344Z,85.90
2019-02-21T04:20:07.197Z,86.50
2019-02-21T04:22:35.904Z,86.70
2019-02-21T04:25:05.751Z,86.90
2019-02-21T04:27:34.240Z,87.30
2019-02-21T04:30:02.962Z,87.50
2019-02-21T04:32:31.549Z,87.50
2019-02-21T04:35:00.327Z,87.50
2019-02-21T04:37:29.033Z,87.30
2019-02-21T04:39:57.686Z,86.90
2019-02-21T04:42:26.341Z,87.10
2019-02-21T04:44:55.144Z,86.60
2019-02-21T04:47:23.802Z,86.10
2019-02-21T04:49:52.464Z,85.70
2019-02-21T04:52:21.098Z,86.10
2019-02-21T04:54:49.724Z,86.00
2019-02-21T04:57:18.379Z,85.80
2019-02-21T04:59:47.080Z,85.70
2019-02-21T05:02:15.754Z,86.00
2019-02-21T05:04:44.408Z,86.10
2019-02-21T05:07:13.012Z,86.50
2019-02-21T05:09:41.676Z,86.70
2019-02-21T05:12:10.317Z,86.80
2019-02-21T05:14:38.988Z,86.90
2019-02-21T05:17:07.640Z,86.70
2019-02-21T05:19:36.295Z,86.70
2019-02-21T05:22:05.005Z,86.50
2019-02-21T05:24:33.645Z,87.00
2019-02-21T05:27:03.852Z,86.90
2019-02-21T05:29:32.587Z,87.40
2019-02-21T05:32:02.794Z,87.30
2019-02-21T05:34:38.826Z,87.30
2019-02-21T05:37:21.295Z,87.70
2019-02-21T05:40:07.562Z,87.60
2019-02-21T05:42:46.606Z,87.40
2019-02-21T05:45:19.652Z,87.90
2019-02-21T05:47:55.605Z,88.50
2019-02-21T05:50:31.307Z,88.60
2019-02-21T05:53:07.292Z,88.60
2019-02-21T05:55:37.558Z,88.60
2019-02-21T05:58:12.610Z,88.90
2019-02-21T06:00:48.051Z,89.20
2019-02-21T06:03:18.268Z,88.80
2019-02-21T06:05:48.499Z,88.70
2019-02-21T06:08:34.009Z,88.30
2019-02-21T06:11:06.991Z,88.30
2019-02-21T06:13:37.267Z,88.10
2019-02-21T06:16:07.472Z,88.40
2019-02-21T06:18:40.559Z,88.20
2019-02-21T06:21:26.874Z,88.20
2019-02-21T06:24:15.380Z,88.00
2019-02-21T06:26:48.594Z,87.80
2019-02-21T06:29:18.863Z,87.50
2019-02-21T06:31:47.518Z,87.60
2019-02-21T06:34:16.190Z,87.20
2019-02-21T06:36:44.824Z,87.10
2019-02-21T06:39:13.389Z,87.60
2019-02-21T06:41:42.792Z,88.00
2019-02-21T06:44:11.866Z,89.10
2019-02-21T06:46:40.523Z,91.00
2019-02-21T06:49:09.171Z,91.50
2019-02-21T06:51:37.796Z,91.10
2019-02-21T06:54:06.425Z,90.80
2019-02-21T06:56:34.941Z,90.50
2019-02-21T06:59:03.664Z,90.30
2019-02-21T07:01:32.223Z,90.10
2019-02-21T07:04:01.912Z,89.70
2019-02-21T07:06:32.181Z,89.90
2019-02-21T07:09:01.149Z,90.40
2019-02-21T07:11:29.828Z,90.60
2019-02-21T07:13:58.559Z,90.70
2019-02-21T07:16:27.114Z,90.60
2019-02-21T07:18:55.762Z,90.30
2019-02-21T07:21:24.485Z,90.00
2019-02-21T07:23:53.126Z,89.50
2019-02-21T07:26:21.774Z,89.70
2019-02-21T07:28:50.458Z,90.00
2019-02-21T07:31:28.200Z,90.00
2019-02-21T07:33:49.415Z,90.10
2019-02-21T07:36:18.119Z,90.10
2019-02-21T07:38:46.769Z,90.20
2019-02-21T07:41:18.453Z,90.00
2019-02-21T07:43:45.771Z,89.90
2019-02-21T07:46:14.356Z,89.70
2019-02-21T07:48:42.999Z,89.50
2019-02-21T07:51:13.467Z,89.50
2019-02-21T07:53:42.025Z,89.30
2019-02-21T07:56:10.667Z,89.30
2019-02-21T07:58:39.688Z,89.40
2019-02-21T08:01:08.437Z,89.40
2019-02-21T08:03:44.407Z,89.50
2019-02-21T08:06:07.442Z,89.50
2019-02-21T08:08:36.186Z,89.30
2019-02-21T08:11:07.036Z,89.20
2019-02-21T08:13:35.184Z,89.20
2019-02-21T08:16:03.848Z,88.60
2019-02-21T08:18:32.507Z,88.50
2019-02-21T08:21:01.131Z,88.60
2019-02-21T08:23:32.307Z,88.80
2019-02-21T08:26:00.080Z,89.60
2019-02-21T08:28:28.868Z,88.60
2019-02-21T08:30:58.254Z,89.30
2019-02-21T08:33:28.740Z,90.10
2019-02-21T08:35:57.981Z,90.00
2019-02-21T08:38:26.987Z,90.00
2019-02-21T08:40:57.200Z,90.00
2019-02-21T08:43:26.004Z,90.00
2019-02-21T08:45:57.385Z,90.20
2019-02-21T08:48:24.866Z,89.90
2019-02-21T08:50:55.022Z,90.00
2019-02-21T08:53:23.694Z,88.70
2019-02-21T08:55:52.267Z,88.20
2019-02-21T08:58:21.995Z,87.70
2019-02-21T09:00:50.638Z,87.30
2019-02-21T09:03:19.297Z,87.00
2019-02-21T09:05:47.914Z,85.90
2019-02-21T09:10:22.831Z,84.30
2019-02-21T09:12:51.525Z,83.90
2019-02-21T09:15:20.144Z,83.70
2019-02-21T09:17:48.796Z,83.90
2019-02-21T09:20:17.515Z,83.30
2019-02-21T09:22:46.090Z,82.60
2019-02-21T09:25:14.851Z,81.40
2019-02-21T09:27:43.564Z,80.10
2019-02-21T09:30:17.066Z,79.80
2019-02-21T09:32:45.740Z,80.10
2019-02-21T09:35:14.410Z,79.40
2019-02-21T09:37:43.054Z,79.80
2019-02-21T09:40:13.706Z,80.50
2019-02-21T09:42:42.401Z,80.20
2019-02-21T09:45:16.252Z,78.30
2019-02-21T09:47:44.884Z,78.10
2019-02-21T09:50:13.570Z,78.10
2019-02-21T09:52:42.225Z,78.40
2019-02-21T09:55:13.482Z,77.50
2019-02-21T09:57:42.111Z,76.80
2019-02-21T10:00:19.830Z,75.90
2019-02-21T10:02:48.479Z,74.00
2019-02-21T10:05:17.126Z,72.20
2019-02-21T10:07:45.712Z,69.90
2019-02-21T10:10:18.815Z,66.20
2019-02-21T10:12:47.443Z,62.70
2019-02-21T10:15:16.790Z,58.60
2019-02-21T10:17:45.490Z,56.20
2019-02-21T10:20:16.526Z,54.50
2019-02-21T10:22:45.180Z,53.60
2019-02-21T10:25:19.590Z,49.90
2019-02-21T10:27:48.199Z,50.00
2019-02-21T10:30:19.073Z,48.60
2019-02-21T10:32:47.708Z,47.90
2019-02-21T10:35:16.352Z,46.90
2019-02-21T10:37:45.015Z,46.80
2019-02-21T10:40:17.491Z,45.80
2019-02-21T10:42:46.164Z,46.90
2019-02-21T10:45:17.357Z,47.40
2019-02-21T10:47:46.066Z,49.10
2019-02-21T10:50:19.230Z,48.30
2019-02-21T10:52:48.283Z,48.30
2019-02-21T10:55:17.572Z,46.60
2019-02-21T10:57:46.165Z,47.80
2019-02-21T11:00:29.747Z,48.90
2019-02-21T11:02:58.326Z,49.40
2019-02-21T11:05:26.920Z,47.80
2019-02-21T11:07:55.633Z,47.80
2019-02-21T11:10:27.159Z,47.70
2019-02-21T11:12:55.823Z,46.90
2019-02-21T11:15:25.812Z,46.30
2019-02-21T11:17:54.448Z,46.20
2019-02-21T11:20:23.097Z,44.50
2019-02-21T11:22:51.801Z,44.90
2019-02-21T11:25:20.390Z,44.60
2019-02-21T11:27:48.985Z,44.80
2019-02-21T11:30:21.591Z,45.30
2019-02-21T11:32:50.237Z,45.90
2019-02-21T11:35:18.886Z,46.50
2019-02-21T11:37:47.770Z,45.30
2019-02-21T11:40:17.557Z,44.80
2019-02-21T11:42:46.213Z,43.80
2019-02-21T11:45:17.082Z,43.90
2019-02-21T11:47:45.741Z,45.00
2019-02-21T11:50:18.441Z,45.30
2019-02-21T11:52:47.134Z,44.50
2019-02-21T11:55:21.645Z,43.00
2019-02-21T11:57:50.363Z,43.00
2019-02-21T12:00:29.716Z,42.00
2019-02-21T12:02:58.270Z,43.50
2019-02-21T12:05:33.569Z,43.50
2019-02-21T12:07:57.144Z,42.10
2019-02-21T12:10:25.839Z,42.60
2019-02-21T12:12:54.491Z,43.70
2019-02-21T12:15:23.141Z,43.40
2019-02-21T12:17:51.789Z,44.30
2019-02-21T12:20:20.844Z,44.50
2019-02-21T12:22:49.494Z,45.90
2019-02-21T12:25:20.303Z,47.20
2019-02-21T12:27:48.889Z,47.60
2019-02-21T12:30:18.835Z,48.90
2019-02-21T12:32:47.539Z,48.40
2019-02-21T12:35:16.118Z,47.30
2019-02-21T12:37:44.781Z,47.30
2019-02-21T12:40:22.242Z,48.00
2019-02-21T12:42:50.814Z,47.20
2019-02-21T12:45:24.466Z,48.30
2019-02-21T12:47:54.071Z,47.90
2019-02-21T12:50:23.066Z,49.10
2019-02-21T12:52:51.660Z,48.80
2019-02-21T12:55:27.988Z,49.70
2019-02-21T12:57:51.957Z,49.30
2019-02-21T13:00:23.726Z,50.20
2019-02-21T13:02:52.416Z,50.50
2019-02-21T13:05:21.076Z,49.30
2019-02-21T13:07:49.742Z,49.70
2019-02-21T13:10:23.361Z,50.80
2019-02-21T13:12:52.020Z,49.60
2019-02-21T13:15:20.677Z,48.90
2019-02-21T13:17:51.110Z,48.90
2019-02-21T13:20:19.539Z,48.80
2019-02-21T13:22:48.200Z,48.00
2019-02-21T13:25:18.601Z,47.70
2019-02-21T13:27:47.263Z,48.20
2019-02-21T13:30:17.116Z,49.30
2019-02-21T13:32:45.743Z,48.30
2019-02-21T13:35:14.398Z,49.50
2019-02-21T13:37:43.043Z,48.20
2019-02-21T13:40:16.239Z,49.10
2019-02-21T13:42:44.932Z,49.70
2019-02-21T13:45:17.163Z,49.40
2019-02-21T13:47:45.173Z,49.90
2019-02-21T13:50:16.474Z,48.10
2019-02-21T13:52:45.058Z,45.30
2019-02-21T13:55:13.770Z,44.70
2019-02-21T13:57:42.362Z,45.00
2019-02-21T14:00:19.266Z,45.10
2019-02-21T14:02:47.832Z,44.20
2019-02-21T14:05:16.474Z,45.10
2019-02-21T14:07:45.185Z,45.70
2019-02-21T14:10:14.531Z,46.40
2019-02-21T14:12:43.203Z,45.80
2019-02-21T14:15:17.914Z,45.40
2019-02-21T14:17:46.827Z,44.50
2019-02-21T14:20:15.646Z,44.10
2019-02-21T14:22:44.355Z,44.00
2019-02-21T14:25:13.006Z,44.70
2019-02-21T14:27:43.240Z,45.30
2019-02-21T14:30:19.374Z,45.40
2019-02-21T14:32:47.954Z,46.30
2019-02-21T14:35:16.619Z,46.50
2019-02-21T14:37:45.297Z,46.00
2019-02-21T14:40:15.651Z,47.10
2019-02-21T14:42:44.303Z,47.40
2019-02-21T14:45:24.137Z,47.40
2019-02-21T14:47:52.786Z,47.10
2019-02-21T14:50:21.370Z,46.80
2019-02-21T14:52:50.073Z,46.80
2019-02-21T14:55:18.718Z,46.90
2019-02-21T14:57:47.382Z,47.00
2019-02-21T15:00:21.797Z,47.60
2019-02-21T15:02:50.444Z,46.60
2019-02-21T15:05:19.490Z,47.00
2019-02-21T15:07:48.334Z,47.10
2019-02-21T15:10:16.941Z,47.70
2019-02-21T15:12:45.605Z,47.70
2019-02-21T15:15:22.799Z,48.40
2019-02-21T15:17:51.439Z,48.40
2019-02-21T15:20:20.097Z,49.00
2019-02-21T15:22:48.792Z,49.60
2019-02-21T15:25:17.461Z,50.50
2019-02-21T15:27:46.137Z,50.40
2019-02-21T15:30:21.942Z,50.40
2019-02-21T15:32:50.514Z,50.00
2019-02-21T15:35:19.737Z,49.60
2019-02-21T15:37:48.679Z,50.00
2019-02-21T15:40:17.244Z,51.00
2019-02-21T15:42:45.899Z,51.10
2019-02-21T15:45:22.897Z,51.10
2019-02-21T15:47:47.891Z,50.90
2019-02-21T15:50:19.557Z,51.50
2019-02-21T15:52:47.446Z,51.50
2019-02-21T15:55:20.759Z,50.90
2019-02-21T15:57:49.407Z,51.40
2019-02-21T16:00:22.755Z,52.40
2019-02-21T16:02:51.406Z,52.90
2019-02-21T16:05:20.071Z,52.00
2019-02-21T16:07:48.771Z,51.50
2019-02-21T16:10:24.901Z,52.40
2019-02-21T16:12:53.578Z,52.20
2019-02-21T16:15:22.331Z,52.50
2019-02-21T16:17:50.854Z,53.30
2019-02-21T16:20:20.899Z,52.90
2019-02-21T16:22:49.534Z,52.50
2019-02-21T16:25:29.314Z,51.80
2019-02-21T16:27:57.970Z,51.70
2019-02-21T16:30:26.608Z,50.90
2019-02-21T16:32:55.289Z,51.60
2019-02-21T16:35:23.878Z,51.80
2019-02-21T16:37:52.481Z,51.50
2019-02-21T16:40:21.173Z,51.60
2019-02-21T16:42:49.818Z,52.00
2019-02-21T16:45:19.966Z,52.80
2019-02-21T16:47:48.677Z,54.00
2019-02-21T16:50:28.829Z,54.80
2019-02-21T16:52:47.536Z,55.00
2019-02-21T16:55:21.824Z,55.70
2019-02-21T16:57:50.483Z,56.10
2019-02-21T17:00:20.341Z,56.50
2019-02-21T17:02:49.050Z,57.10
2019-02-21T17:05:17.628Z,57.30
2019-02-21T17:07:46.269Z,57.50
2019-02-21T17:10:16.390Z,57.90
2019-02-21T17:12:45.035Z,58.50
2019-02-21T17:15:14.890Z,59.00
2019-02-21T17:17:43.571Z,59.40
2019-02-21T17:20:14.436Z,59.90
2019-02-21T17:22:43.082Z,60.70
2019-02-21T17:25:13.986Z,61.40
2019-02-21T17:27:42.645Z,61.80
2019-02-21T17:30:18.398Z,62.40
2019-02-21T17:32:46.995Z,62.70
2019-02-21T17:35:15.658Z,63.00
2019-02-21T17:37:44.344Z,63.30
2019-02-21T17:40:23.539Z,63.40
2019-02-21T17:42:52.252Z,63.80
2019-02-21T17:45:20.893Z,64.20
2019-02-21T17:47:49.552Z,64.20
2019-02-21T17:50:19.255Z,64.30
2019-02-21T17:52:47.918Z,64.60
2019-02-21T17:55:17.280Z,64.90
2019-02-21T17:57:45.990Z,65.00
2019-02-21T18:00:28.107Z,65.20
2019-02-21T18:02:56.881Z,65.60
2019-02-21T18:05:25.515Z,65.80
2019-02-21T18:07:54.176Z,66.10
2019-02-21T18:10:22.874Z,66.40
2019-02-21T18:12:51.524Z,67.00
2019-02-21T18:15:20.216Z,67.00
2019-02-21T18:17:49.014Z,67.30
2019-02-21T18:20:17.668Z,67.50
2019-02-21T18:22:46.304Z,67.40
2019-02-21T18:25:18.134Z,67.60
2019-02-21T18:27:46.882Z,67.80
2019-02-21T18:30:18.208Z,68.20
2019-02-21T18:32:46.928Z,68.80
2019-02-21T18:35:15.578Z,69.30
2019-02-21T18:37:47.605Z,69.50
2019-02-21T18:40:34.065Z,69.60
2019-02-21T18:43:05.672Z,69.80
2019-02-21T18:45:34.408Z,70.00
2019-02-21T18:48:03.106Z,70.40
2019-02-21T18:50:38.283Z,70.50
2019-02-21T18:53:02.041Z,70.80
2019-02-21T18:55:30.725Z,70.70
2019-02-21T18:58:00.951Z,71.10
2019-02-21T19:00:29.692Z,71.20
2019-02-21T19:02:58.408Z,71.60
2019-02-21T19:05:35.253Z,71.90
2019-02-21T19:08:04.751Z,72.10
2019-02-21T19:10:27.800Z,72.50
2019-02-21T19:12:56.462Z,72.60
2019-02-21T19:15:26.664Z,72.70
2019-02-21T19:17:55.463Z,72.70
2019-02-21T19:20:24.222Z,72.80
2019-02-21T19:22:52.864Z,72.70
2019-02-21T19:25:21.577Z,72.50
2019-02-21T19:27:50.220Z,72.50
2019-02-21T19:30:28.136Z,72.10
2019-02-21T19:32:56.868Z,72.10
2019-02-21T19:35:27.088Z,72.00
2019-02-21T19:37:55.782Z,71.80
2019-02-21T19:40:24.531Z,71.90
2019-02-21T19:42:55.727Z,71.90
2019-02-21T19:45:24.489Z,71.90
2019-02-21T19:47:53.137Z,72.30
2019-02-21T19:50:21.782Z,72.60
2019-02-21T19:52:50.476Z,72.80
2019-02-21T19:55:19.119Z,72.90
2019-02-21T19:57:47.872Z,73.00
2019-02-21T20:00:21.000Z,72.90
2019-02-21T20:02:49.660Z,72.90
2019-02-21T20:05:18.307Z,73.40
2019-02-21T20:07:47.009Z,73.70
2019-02-21T20:10:15.650Z,73.80
2019-02-21T20:12:44.288Z,74.00
2019-02-21T20:15:13.004Z,74.00
2019-02-21T20:17:41.669Z,74.30
2019-02-21T20:20:22.165Z,74.70
2019-02-21T20:22:50.815Z,74.50
2019-02-21T20:25:19.465Z,74.60
2019-02-21T20:27:48.162Z,74.70
2019-02-21T20:30:18.412Z,75.30
2019-02-21T20:32:49.873Z,75.40
2019-02-21T20:35:18.572Z,75.60
2019-02-21T20:37:47.228Z,75.70
2019-02-21T20:40:15.974Z,75.70
2019-02-21T20:42:44.677Z,76.00
2019-02-21T20:45:14.821Z,76.40
2019-02-21T20:47:43.461Z,76.50
2019-02-21T20:50:12.970Z,76.90
2019-02-21T20:52:41.614Z,77.00
2019-02-21T20:55:11.392Z,76.30
2019-02-21T20:57:40.081Z,75.70
2019-02-21T21:00:19.195Z,75.30
2019-02-21T21:02:48.031Z,75.10
2019-02-21T21:05:16.899Z,74.40
2019-02-21T21:07:45.542Z,74.40
2019-02-21T21:10:15.856Z,74.10
2019-02-21T21:12:44.486Z,74.00
2019-02-21T21:15:14.640Z,74.00
2019-02-21T21:17:43.373Z,73.80
2019-02-21T21:20:17.036Z,73.70
2019-02-21T21:22:43.401Z,73.60
2019-02-21T21:25:17.081Z,73.60
2019-02-21T21:27:45.736Z,73.80
2019-02-21T21:30:15.972Z,73.90
2019-02-21T21:32:44.671Z,74.30
2019-02-21T21:35:13.317Z,74.40
2019-02-21T21:37:41.971Z,74.80
2019-02-21T21:40:13.175Z,75.00
2019-02-21T21:42:41.826Z,75.40
2019-02-21T21:45:13.276Z,75.40
2019-02-21T21:47:42.027Z,75.80
2019-02-21T21:50:16.210Z,75.80
2019-02-21T21:52:44.898Z,75.70
2019-02-21T21:55:13.596Z,76.30
2019-02-21T21:57:42.272Z,76.60
2019-02-21T22:00:13.381Z,76.30
2019-02-21T22:02:42.074Z,76.30
2019-02-21T22:05:10.727Z,77.00
2019-02-21T22:07:39.374Z,77.30
2019-02-21T22:10:10.633Z,77.50
2019-02-21T22:12:39.292Z,77.40
2019-02-21T22:15:19.346Z,77.40
2019-02-21T22:17:47.935Z,77.20
2019-02-21T22:20:16.602Z,77.40
2019-02-21T22:22:45.297Z,77.30
2019-02-21T22:25:14.425Z,77.80
2019-02-21T22:27:43.074Z,78.00
2019-02-21T22:30:17.620Z,78.30
2019-02-21T22:32:46.272Z,78.50
2019-02-21T22:35:14.906Z,78.70
2019-02-21T22:37:43.611Z,78.50
2019-02-21T22:40:15.107Z,78.50
2019-02-21T22:42:43.748Z,78.70
2019-02-21T22:45:12.491Z,78.70
2019-02-21T22:47:41.138Z,78.50
2019-02-21T22:50:15.685Z,78.10
2019-02-21T22:52:44.369Z,77.80
2019-02-21T22:55:13.008Z,77.80
2019-02-21T22:57:41.651Z,77.70
2019-02-21T23:00:48.131Z,77.70
2019-02-21T23:03:17.604Z,77.90
2019-02-21T23:06:01.815Z,79.10
2019-02-21T23:08:45.274Z,78.20
2019-02-21T23:11:13.977Z,78.40
2019-02-21T23:13:42.611Z,77.90
2019-02-21T23:16:11.289Z,78.00
2019-02-21T23:18:40.000Z,78.00
2019-02-21T23:21:08.686Z,78.40
2019-02-21T23:23:37.719Z,78.60
2019-02-21T23:26:06.440Z,78.50
2019-02-21T23:28:35.024Z,78.40
2019-02-21T23:31:03.668Z,78.60
2019-02-21T23:33:33.896Z,78.80
2019-02-21T23:36:02.547Z,78.80
2019-02-21T23:38:31.194Z,78.50
2019-02-21T23:40:59.903Z,78.30
2019-02-21T23:43:28.560Z,77.90
2019-02-21T23:45:57.211Z,78.00
2019-02-21T23:48:25.906Z,78.00
2019-02-21T23:50:54.566Z,77.50
2019-02-21T23:53:23.199Z,77.10
2019-02-21T23:55:51.902Z,77.20
2019-02-21T23:58:20.554Z,77.40
